RUK198P EGCC-GMTT
Flight info
| Callsign | RUK198P |
|---|---|
| Flight time | 2h 47m |
| Altitude | 38000 |
| Route | ASMI1S ASMIM DCT NOKIN P17 BEPHE DCT OSSEP DCT ELNIF DCT ZESPE DCT DAWLY DCT BHD DCT SALCO DCT GOPIN DCT DELOG DCT VADOX DCT SNR DCT TITAN DCT RATAS DCT NEA DCT NONTU DCT ORBIS DCT DISKO DCT TLD DCT DOPEN DCT MONTO DCT MOLIN DCT VJF N10 LINTO DCT NOLRO DCT |
| Aircraft | B738/M-SDE3FGILRWY/SB1 |
Departure
| Time | 2026-04-22 13:04 |
|---|---|
| Airport | Manchester Airport (EGCC) |
Arrival
| Time | 2026-04-22 15:51 |
|---|---|
| Airport | Tangier Ibn Battuta Airport (GMTT) |
| Time | Latitude | Longitude | Altitude | Speed | Heading |
|---|---|---|---|---|---|
| 2026-04-22 12:37 | 53.36088 | -2.26793 | 254 ft | 0 kts | 313° |
| 2026-04-22 12:54 | 53.36079 | -2.26777 | 254 ft | 4 kts | 313° |
| 2026-04-22 12:54 | 53.36064 | -2.26751 | 254 ft | 4 kts | 307° |
| 2026-04-22 12:54 | 53.36054 | -2.26714 | 254 ft | 4 kts | 264° |
| 2026-04-22 12:55 | 53.36061 | -2.26676 | 254 ft | 4 kts | 240° |
| 2026-04-22 12:55 | 53.36072 | -2.26646 | 254 ft | 0 kts | 240° |
| 2026-04-22 12:58 | 53.36039 | -2.26720 | 254 ft | 14 kts | 231° |
| 2026-04-22 12:59 | 53.35951 | -2.26837 | 254 ft | 13 kts | 179° |
| 2026-04-22 12:59 | 53.35859 | -2.26913 | 255 ft | 18 kts | 223° |
| 2026-04-22 12:59 | 53.35792 | -2.27099 | 254 ft | 21 kts | 233° |
| 2026-04-22 12:59 | 53.35690 | -2.27309 | 254 ft | 25 kts | 231° |
| 2026-04-22 13:00 | 53.35562 | -2.27571 | 242 ft | 32 kts | 231° |
| 2026-04-22 13:00 | 53.35456 | -2.27845 | 239 ft | 24 kts | 263° |
| 2026-04-22 13:00 | 53.35368 | -2.28059 | 235 ft | 23 kts | 229° |
| 2026-04-22 13:00 | 53.35254 | -2.28244 | 231 ft | 23 kts | 230° |
| 2026-04-22 13:01 | 53.35156 | -2.28457 | 226 ft | 24 kts | 231° |
| 2026-04-22 13:01 | 53.35054 | -2.28668 | 229 ft | 23 kts | 231° |
| 2026-04-22 13:01 | 53.34946 | -2.28858 | 225 ft | 22 kts | 225° |
| 2026-04-22 13:01 | 53.34836 | -2.29047 | 221 ft | 24 kts | 228° |
| 2026-04-22 13:02 | 53.34733 | -2.29262 | 212 ft | 24 kts | 226° |
| 2026-04-22 13:02 | 53.34607 | -2.29339 | 212 ft | 18 kts | 167° |
| 2026-04-22 13:02 | 53.34548 | -2.29204 | 218 ft | 18 kts | 49° |
| 2026-04-22 13:02 | 53.34623 | -2.29044 | 214 ft | 17 kts | 47° |
| 2026-04-22 13:03 | 53.34699 | -2.28893 | 221 ft | 19 kts | 52° |
| 2026-04-22 13:03 | 53.34929 | -2.28417 | 232 ft | 92 kts | 52° |
| 2026-04-22 13:03 | 53.35487 | -2.27258 | 253 ft | 160 kts | 51° |
| 2026-04-22 13:03 | 53.36281 | -2.25693 | 795 ft | 187 kts | 54° |
| 2026-04-22 13:04 | 53.37153 | -2.23936 | 1376 ft | 208 kts | 55° |
| 2026-04-22 13:04 | 53.38082 | -2.22025 | 2290 ft | 206 kts | 53° |
| 2026-04-22 13:04 | 53.39163 | -2.20503 | 3067 ft | 213 kts | 27° |
| 2026-04-22 13:04 | 53.40711 | -2.20462 | 3405 ft | 241 kts | 347° |
| 2026-04-22 13:05 | 53.42033 | -2.22294 | 3822 ft | 261 kts | 305° |
| 2026-04-22 13:05 | 53.42627 | -2.25212 | 4256 ft | 268 kts | 285° |
| 2026-04-22 13:05 | 53.43166 | -2.28217 | 4663 ft | 271 kts | 293° |
| 2026-04-22 13:05 | 53.43893 | -2.31139 | 5032 ft | 272 kts | 297° |
| 2026-04-22 13:06 | 53.44702 | -2.34028 | 5028 ft | 274 kts | 298° |
| 2026-04-22 13:06 | 53.45553 | -2.36914 | 5391 ft | 277 kts | 299° |
| 2026-04-22 13:06 | 53.46422 | -2.39794 | 5880 ft | 277 kts | 298° |
| 2026-04-22 13:06 | 53.47005 | -2.42882 | 6303 ft | 286 kts | 271° |
| 2026-04-22 13:07 | 53.46752 | -2.46251 | 6699 ft | 295 kts | 256° |
| 2026-04-22 13:07 | 53.46349 | -2.49643 | 7373 ft | 299 kts | 256° |
| 2026-04-22 13:07 | 53.45901 | -2.53124 | 7814 ft | 313 kts | 252° |
| 2026-04-22 13:07 | 53.45221 | -2.56675 | 8338 ft | 320 kts | 252° |
| 2026-04-22 13:08 | 53.44872 | -2.60293 | 9567 ft | 305 kts | 260° |
| 2026-04-22 13:08 | 53.44320 | -2.63658 | 10493 ft | 300 kts | 237° |
| 2026-04-22 13:08 | 53.42925 | -2.66222 | 10811 ft | 306 kts | 208° |
| 2026-04-22 13:08 | 53.40952 | -2.67759 | 11005 ft | 322 kts | 197° |
| 2026-04-22 13:09 | 53.38800 | -2.69097 | 11410 ft | 335 kts | 196° |
| 2026-04-22 13:09 | 53.36591 | -2.70428 | 12121 ft | 338 kts | 194° |
| 2026-04-22 13:09 | 53.34384 | -2.71792 | 12916 ft | 339 kts | 196° |
| 2026-04-22 13:09 | 53.32148 | -2.73154 | 13638 ft | 343 kts | 196° |
| 2026-04-22 13:10 | 53.29890 | -2.74520 | 14347 ft | 348 kts | 197° |
| 2026-04-22 13:10 | 53.27618 | -2.75942 | 15089 ft | 349 kts | 197° |
| 2026-04-22 13:10 | 53.25353 | -2.77357 | 15782 ft | 353 kts | 197° |
| 2026-04-22 13:10 | 53.23010 | -2.78805 | 16451 ft | 358 kts | 197° |
| 2026-04-22 13:11 | 53.20662 | -2.80260 | 17177 ft | 361 kts | 198° |
| 2026-04-22 13:11 | 53.18296 | -2.81740 | 17819 ft | 365 kts | 198° |
| 2026-04-22 13:11 | 53.16715 | -2.82727 | 18294 ft | 367 kts | 196° |
| 2026-04-22 13:11 | 53.14303 | -2.84163 | 18941 ft | 371 kts | 198° |
| 2026-04-22 13:12 | 53.11037 | -2.86216 | 19607 ft | 378 kts | 199° |
| 2026-04-22 13:12 | 53.09370 | -2.87082 | 19967 ft | 381 kts | 192° |
| 2026-04-22 13:12 | 53.06741 | -2.87690 | 20476 ft | 385 kts | 181° |
| 2026-04-22 13:12 | 53.04047 | -2.87426 | 20952 ft | 391 kts | 172° |
| 2026-04-22 13:13 | 53.01340 | -2.86697 | 21422 ft | 398 kts | 171° |
| 2026-04-22 13:13 | 52.98597 | -2.85918 | 21990 ft | 400 kts | 171° |
| 2026-04-22 13:13 | 52.95832 | -2.85136 | 22427 ft | 408 kts | 173° |
| 2026-04-22 13:13 | 52.92994 | -2.84417 | 22787 ft | 416 kts | 172° |
| 2026-04-22 13:14 | 52.90120 | -2.83592 | 23195 ft | 423 kts | 172° |
| 2026-04-22 13:14 | 52.87200 | -2.82782 | 23713 ft | 426 kts | 173° |
| 2026-04-22 13:14 | 52.84263 | -2.81986 | 24207 ft | 429 kts | 173° |
| 2026-04-22 13:14 | 52.81307 | -2.81198 | 24632 ft | 432 kts | 173° |
| 2026-04-22 13:15 | 52.78327 | -2.80402 | 25069 ft | 435 kts | 174° |
| 2026-04-22 13:15 | 52.75335 | -2.79583 | 25503 ft | 438 kts | 174° |
| 2026-04-22 13:15 | 52.72314 | -2.78749 | 25911 ft | 441 kts | 174° |
| 2026-04-22 13:15 | 52.69277 | -2.77918 | 26268 ft | 445 kts | 174° |
| 2026-04-22 13:16 | 52.66244 | -2.77117 | 26645 ft | 448 kts | 175° |
| 2026-04-22 13:16 | 52.63112 | -2.76300 | 27070 ft | 450 kts | 175° |
| 2026-04-22 13:16 | 52.60048 | -2.75785 | 27453 ft | 448 kts | 184° |
| 2026-04-22 13:16 | 52.56939 | -2.76020 | 27843 ft | 447 kts | 189° |
| 2026-04-22 13:17 | 52.53788 | -2.76406 | 28234 ft | 449 kts | 189° |
| 2026-04-22 13:17 | 52.50698 | -2.76730 | 28613 ft | 452 kts | 188° |
| 2026-04-22 13:17 | 52.47547 | -2.77018 | 28959 ft | 455 kts | 188° |
| 2026-04-22 13:17 | 52.44375 | -2.77291 | 29330 ft | 457 kts | 188° |
| 2026-04-22 13:18 | 52.41194 | -2.77559 | 29678 ft | 459 kts | 188° |
| 2026-04-22 13:18 | 52.37989 | -2.77828 | 30038 ft | 461 kts | 189° |
| 2026-04-22 13:18 | 52.34780 | -2.78100 | 30374 ft | 463 kts | 189° |
| 2026-04-22 13:18 | 52.31554 | -2.78375 | 30655 ft | 465 kts | 189° |
| 2026-04-22 13:19 | 52.28312 | -2.78652 | 30938 ft | 467 kts | 189° |
| 2026-04-22 13:19 | 52.25062 | -2.78931 | 31234 ft | 467 kts | 188° |
| 2026-04-22 13:19 | 52.21830 | -2.79206 | 31690 ft | 464 kts | 188° |
| 2026-04-22 13:19 | 52.18614 | -2.79478 | 32145 ft | 461 kts | 188° |
| 2026-04-22 13:20 | 52.15412 | -2.79752 | 32503 ft | 461 kts | 188° |
| 2026-04-22 13:20 | 52.12208 | -2.80027 | 32852 ft | 460 kts | 188° |
| 2026-04-22 13:20 | 52.09013 | -2.80300 | 33210 ft | 459 kts | 188° |
| 2026-04-22 13:20 | 52.05822 | -2.80571 | 33580 ft | 458 kts | 188° |
| 2026-04-22 13:21 | 52.02642 | -2.80842 | 33945 ft | 457 kts | 188° |
| 2026-04-22 13:21 | 51.99474 | -2.81112 | 34317 ft | 455 kts | 188° |
| 2026-04-22 13:21 | 51.96317 | -2.81380 | 34734 ft | 453 kts | 188° |
| 2026-04-22 13:21 | 51.93173 | -2.81648 | 35016 ft | 453 kts | 188° |
| 2026-04-22 13:22 | 51.90014 | -2.81917 | 35254 ft | 454 kts | 187° |
| 2026-04-22 13:22 | 51.86856 | -2.82185 | 35534 ft | 454 kts | 187° |
| 2026-04-22 13:22 | 51.83725 | -2.82573 | 35829 ft | 451 kts | 191° |
| 2026-04-22 13:22 | 51.80614 | -2.83197 | 36092 ft | 450 kts | 192° |
| 2026-04-22 13:23 | 51.77515 | -2.83897 | 36335 ft | 450 kts | 192° |
| 2026-04-22 13:23 | 51.74410 | -2.84608 | 36597 ft | 449 kts | 192° |
| 2026-04-22 13:23 | 51.71325 | -2.85297 | 36867 ft | 448 kts | 191° |
| 2026-04-22 13:23 | 51.68225 | -2.85971 | 37079 ft | 449 kts | 191° |
| 2026-04-22 13:24 | 51.65130 | -2.86629 | 37271 ft | 450 kts | 191° |
| 2026-04-22 13:24 | 51.62021 | -2.87285 | 37504 ft | 449 kts | 191° |
| 2026-04-22 13:24 | 51.58968 | -2.87927 | 37724 ft | 449 kts | 191° |
| 2026-04-22 13:24 | 51.55876 | -2.88634 | 37882 ft | 448 kts | 194° |
| 2026-04-22 13:25 | 51.52901 | -2.89971 | 38099 ft | 440 kts | 205° |
| 2026-04-22 13:25 | 51.50069 | -2.91787 | 38402 ft | 438 kts | 204° |
| 2026-04-22 13:25 | 51.47189 | -2.93565 | 38506 ft | 440 kts | 204° |
| 2026-04-22 13:26 | 51.41444 | -2.97031 | 38746 ft | 441 kts | 203° |
| 2026-04-22 13:26 | 51.38605 | -2.98727 | 38942 ft | 440 kts | 203° |
| 2026-04-22 13:26 | 51.35736 | -3.00436 | 39087 ft | 440 kts | 204° |
| 2026-04-22 13:26 | 51.32860 | -3.02149 | 39200 ft | 440 kts | 204° |
| 2026-04-22 13:27 | 51.29994 | -3.03857 | 39127 ft | 440 kts | 204° |
| 2026-04-22 13:27 | 51.24311 | -3.07302 | 39246 ft | 433 kts | 203° |
| 2026-04-22 13:28 | 51.18669 | -3.10603 | 39268 ft | 430 kts | 205° |
| 2026-04-22 13:28 | 51.13096 | -3.13921 | 39269 ft | 427 kts | 205° |
| 2026-04-22 13:29 | 51.07525 | -3.17186 | 39261 ft | 426 kts | 205° |
| 2026-04-22 13:29 | 51.01907 | -3.20367 | 39258 ft | 432 kts | 204° |
| 2026-04-22 13:30 | 50.96280 | -3.23829 | 39248 ft | 436 kts | 205° |
| 2026-04-22 13:30 | 50.90559 | -3.27184 | 39255 ft | 439 kts | 204° |
| 2026-04-22 13:31 | 50.84802 | -3.30533 | 39240 ft | 440 kts | 203° |
| 2026-04-22 13:31 | 50.79148 | -3.33727 | 39233 ft | 425 kts | 204° |
| 2026-04-22 13:32 | 50.73682 | -3.37025 | 39235 ft | 423 kts | 200° |
| 2026-04-22 13:32 | 50.68156 | -3.40228 | 39239 ft | 426 kts | 202° |
| 2026-04-22 13:33 | 50.62550 | -3.43392 | 39234 ft | 431 kts | 202° |
| 2026-04-22 13:33 | 50.56855 | -3.46477 | 39243 ft | 437 kts | 197° |
| 2026-04-22 13:34 | 50.50776 | -3.47696 | 39241 ft | 443 kts | 189° |
| 2026-04-22 13:34 | 50.44624 | -3.48585 | 39238 ft | 443 kts | 192° |
| 2026-04-22 13:35 | 50.38515 | -3.49562 | 39241 ft | 440 kts | 185° |
| 2026-04-22 13:35 | 50.32425 | -3.49746 | 39236 ft | 435 kts | 183° |
| 2026-04-22 13:36 | 50.26412 | -3.50080 | 39222 ft | 431 kts | 188° |
| 2026-04-22 13:36 | 50.20420 | -3.50441 | 39239 ft | 433 kts | 187° |
| 2026-04-22 13:37 | 50.14356 | -3.50878 | 39233 ft | 440 kts | 185° |
| 2026-04-22 13:37 | 50.08202 | -3.51059 | 39227 ft | 444 kts | 183° |
| 2026-04-22 13:38 | 50.02006 | -3.51374 | 39218 ft | 447 kts | 186° |
| 2026-04-22 13:38 | 49.92781 | -3.52058 | 39208 ft | 437 kts | 184° |
| 2026-04-22 13:39 | 49.86718 | -3.52320 | 39206 ft | 435 kts | 188° |
| 2026-04-22 13:39 | 49.80680 | -3.52644 | 39197 ft | 433 kts | 186° |
| 2026-04-22 13:40 | 49.74704 | -3.53096 | 39190 ft | 433 kts | 186° |
| 2026-04-22 13:40 | 49.68672 | -3.53300 | 39184 ft | 433 kts | 186° |
| 2026-04-22 13:41 | 49.62642 | -3.53652 | 39194 ft | 435 kts | 184° |
| 2026-04-22 13:41 | 49.56567 | -3.53784 | 39198 ft | 437 kts | 185° |
| 2026-04-22 13:42 | 49.50485 | -3.54207 | 39189 ft | 439 kts | 186° |
| 2026-04-22 13:42 | 49.44365 | -3.54672 | 39168 ft | 441 kts | 186° |
| 2026-04-22 13:43 | 49.38218 | -3.55077 | 39174 ft | 443 kts | 186° |
| 2026-04-22 13:43 | 49.32058 | -3.55445 | 39163 ft | 444 kts | 185° |
| 2026-04-22 13:44 | 49.25908 | -3.55846 | 39144 ft | 439 kts | 184° |
| 2026-04-22 13:44 | 49.19874 | -3.56059 | 39134 ft | 429 kts | 186° |
| 2026-04-22 13:45 | 49.13922 | -3.56447 | 39141 ft | 427 kts | 186° |
| 2026-04-22 13:45 | 49.07999 | -3.56819 | 39146 ft | 426 kts | 186° |
| 2026-04-22 13:46 | 49.02071 | -3.57170 | 39120 ft | 426 kts | 186° |
| 2026-04-22 13:46 | 48.96153 | -3.57511 | 39126 ft | 427 kts | 186° |
| 2026-04-22 13:47 | 48.90204 | -3.57851 | 39108 ft | 428 kts | 186° |
| 2026-04-22 13:47 | 48.84287 | -3.58189 | 39108 ft | 429 kts | 186° |
| 2026-04-22 13:48 | 48.78317 | -3.58529 | 39109 ft | 430 kts | 186° |
| 2026-04-22 13:48 | 48.72326 | -3.58869 | 39107 ft | 432 kts | 186° |
| 2026-04-22 13:49 | 48.66303 | -3.59211 | 39115 ft | 434 kts | 186° |
| 2026-04-22 13:49 | 48.60260 | -3.59552 | 39103 ft | 435 kts | 186° |
| 2026-04-22 13:50 | 48.54202 | -3.59892 | 39099 ft | 435 kts | 187° |
| 2026-04-22 13:50 | 48.48159 | -3.60231 | 39091 ft | 434 kts | 187° |
| 2026-04-22 13:51 | 48.42144 | -3.60568 | 39098 ft | 433 kts | 187° |
| 2026-04-22 13:51 | 48.36129 | -3.60905 | 39082 ft | 432 kts | 187° |
| 2026-04-22 13:52 | 48.30141 | -3.61239 | 39071 ft | 430 kts | 187° |
| 2026-04-22 13:52 | 48.24171 | -3.61572 | 39078 ft | 428 kts | 187° |
| 2026-04-22 13:53 | 48.18233 | -3.61902 | 39076 ft | 426 kts | 187° |
| 2026-04-22 13:53 | 48.12312 | -3.62230 | 39069 ft | 425 kts | 187° |
| 2026-04-22 13:54 | 48.06408 | -3.62557 | 39062 ft | 425 kts | 187° |
| 2026-04-22 13:54 | 48.00506 | -3.62883 | 39068 ft | 424 kts | 187° |
| 2026-04-22 13:55 | 47.94598 | -3.63209 | 39058 ft | 425 kts | 187° |
| 2026-04-22 13:55 | 47.88697 | -3.63534 | 39057 ft | 425 kts | 187° |
| 2026-04-22 13:56 | 47.82776 | -3.63859 | 39053 ft | 425 kts | 187° |
| 2026-04-22 13:56 | 47.76860 | -3.64183 | 39053 ft | 426 kts | 187° |
| 2026-04-22 13:57 | 47.70938 | -3.64506 | 39049 ft | 426 kts | 187° |
| 2026-04-22 13:57 | 47.65009 | -3.64829 | 39049 ft | 426 kts | 187° |
| 2026-04-22 13:58 | 47.59074 | -3.65151 | 39051 ft | 427 kts | 187° |
| 2026-04-22 13:58 | 47.53137 | -3.65473 | 39034 ft | 427 kts | 187° |
| 2026-04-22 13:59 | 47.47200 | -3.65794 | 39042 ft | 427 kts | 187° |
| 2026-04-22 13:59 | 47.41262 | -3.66115 | 39048 ft | 427 kts | 187° |
| 2026-04-22 14:00 | 47.36324 | -3.66380 | 39049 ft | 427 kts | 187° |
| 2026-04-22 14:00 | 47.29418 | -3.66752 | 39042 ft | 427 kts | 187° |
| 2026-04-22 14:01 | 47.24446 | -3.67019 | 39048 ft | 427 kts | 187° |
| 2026-04-22 14:01 | 47.17538 | -3.67388 | 39047 ft | 428 kts | 187° |
| 2026-04-22 14:02 | 47.12548 | -3.67655 | 39046 ft | 428 kts | 187° |
| 2026-04-22 14:02 | 47.06592 | -3.67972 | 39046 ft | 429 kts | 187° |
| 2026-04-22 14:03 | 47.00642 | -3.68393 | 39047 ft | 427 kts | 189° |
| 2026-04-22 14:03 | 46.94717 | -3.69125 | 39054 ft | 427 kts | 190° |
| 2026-04-22 14:04 | 46.88839 | -3.69883 | 39028 ft | 427 kts | 190° |
| 2026-04-22 14:04 | 46.82930 | -3.70609 | 39037 ft | 426 kts | 190° |
| 2026-04-22 14:05 | 46.77025 | -3.71312 | 39040 ft | 425 kts | 190° |
| 2026-04-22 14:06 | 46.68185 | -3.72349 | 39039 ft | 424 kts | 190° |
| 2026-04-22 14:06 | 46.62300 | -3.73038 | 39037 ft | 424 kts | 190° |
| 2026-04-22 14:07 | 46.56428 | -3.73724 | 39038 ft | 423 kts | 190° |
| 2026-04-22 14:07 | 46.50566 | -3.74407 | 39023 ft | 423 kts | 190° |
| 2026-04-22 14:08 | 46.44702 | -3.75090 | 39029 ft | 422 kts | 190° |
| 2026-04-22 14:08 | 46.38845 | -3.75770 | 39033 ft | 422 kts | 190° |
| 2026-04-22 14:09 | 46.32991 | -3.76449 | 39030 ft | 423 kts | 190° |
| 2026-04-22 14:09 | 46.27124 | -3.77128 | 39023 ft | 423 kts | 190° |
| 2026-04-22 14:10 | 46.21247 | -3.77806 | 39032 ft | 424 kts | 190° |
| 2026-04-22 14:10 | 46.15362 | -3.78484 | 39029 ft | 425 kts | 190° |
| 2026-04-22 14:11 | 46.09458 | -3.79162 | 39023 ft | 426 kts | 190° |
| 2026-04-22 14:11 | 46.03549 | -3.79839 | 39030 ft | 427 kts | 189° |
| 2026-04-22 14:12 | 45.97626 | -3.80517 | 39024 ft | 428 kts | 189° |
| 2026-04-22 14:12 | 45.91724 | -3.81191 | 39031 ft | 428 kts | 189° |
| 2026-04-22 14:13 | 45.85779 | -3.81867 | 39022 ft | 429 kts | 189° |
| 2026-04-22 14:13 | 45.79826 | -3.82544 | 39029 ft | 429 kts | 189° |
| 2026-04-22 14:14 | 45.73872 | -3.83219 | 39035 ft | 429 kts | 189° |
| 2026-04-22 14:14 | 45.67921 | -3.83892 | 39020 ft | 429 kts | 189° |
| 2026-04-22 14:15 | 45.61965 | -3.84565 | 39027 ft | 429 kts | 189° |
| 2026-04-22 14:15 | 45.56007 | -3.85236 | 39031 ft | 429 kts | 189° |
| 2026-04-22 14:16 | 45.50046 | -3.85906 | 39023 ft | 429 kts | 189° |
| 2026-04-22 14:16 | 45.44093 | -3.86574 | 39030 ft | 429 kts | 189° |
| 2026-04-22 14:17 | 45.38128 | -3.87242 | 39031 ft | 430 kts | 189° |
| 2026-04-22 14:17 | 45.32168 | -3.87909 | 39046 ft | 430 kts | 189° |
| 2026-04-22 14:18 | 45.26213 | -3.88572 | 39042 ft | 429 kts | 189° |
| 2026-04-22 14:18 | 45.20251 | -3.89236 | 39044 ft | 430 kts | 189° |
| 2026-04-22 14:19 | 45.14293 | -3.89897 | 39050 ft | 430 kts | 189° |
| 2026-04-22 14:19 | 45.08324 | -3.90559 | 39038 ft | 430 kts | 189° |
| 2026-04-22 14:20 | 44.99363 | -3.91549 | 39050 ft | 431 kts | 189° |
| 2026-04-22 14:20 | 44.93390 | -3.92208 | 39049 ft | 431 kts | 189° |
| 2026-04-22 14:21 | 44.84411 | -3.93195 | 39054 ft | 432 kts | 189° |
| 2026-04-22 14:22 | 44.75414 | -3.94181 | 39055 ft | 433 kts | 189° |
| 2026-04-22 14:23 | 44.66448 | -3.95161 | 39057 ft | 433 kts | 189° |
| 2026-04-22 14:23 | 44.60431 | -3.95816 | 39057 ft | 434 kts | 189° |
| 2026-04-22 14:24 | 44.54407 | -3.96472 | 39048 ft | 434 kts | 189° |
| 2026-04-22 14:24 | 44.48386 | -3.97125 | 39059 ft | 434 kts | 189° |
| 2026-04-22 14:25 | 44.42365 | -3.97777 | 39060 ft | 434 kts | 189° |
| 2026-04-22 14:25 | 44.36332 | -3.98429 | 39065 ft | 435 kts | 189° |
| 2026-04-22 14:26 | 44.30280 | -3.98729 | 39070 ft | 439 kts | 181° |
| 2026-04-22 14:26 | 44.24181 | -3.98084 | 39060 ft | 440 kts | 180° |
| 2026-04-22 14:27 | 44.18069 | -3.97375 | 39068 ft | 440 kts | 180° |
| 2026-04-22 14:27 | 44.11963 | -3.96737 | 39058 ft | 440 kts | 180° |
| 2026-04-22 14:28 | 44.05898 | -3.96140 | 39071 ft | 440 kts | 180° |
| 2026-04-22 14:28 | 43.99797 | -3.95547 | 39075 ft | 440 kts | 180° |
| 2026-04-22 14:29 | 43.93647 | -3.94948 | 39068 ft | 440 kts | 180° |
| 2026-04-22 14:29 | 43.87579 | -3.94357 | 39077 ft | 440 kts | 180° |
| 2026-04-22 14:30 | 43.81467 | -3.93763 | 39081 ft | 440 kts | 180° |
| 2026-04-22 14:30 | 43.75357 | -3.93170 | 39073 ft | 440 kts | 180° |
| 2026-04-22 14:31 | 43.69240 | -3.92570 | 39088 ft | 440 kts | 180° |
| 2026-04-22 14:31 | 43.63125 | -3.91969 | 39084 ft | 441 kts | 180° |
| 2026-04-22 14:32 | 43.57002 | -3.91370 | 39100 ft | 441 kts | 180° |
| 2026-04-22 14:32 | 43.50880 | -3.90773 | 39101 ft | 441 kts | 180° |
| 2026-04-22 14:33 | 43.44766 | -3.90237 | 39099 ft | 439 kts | 184° |
| 2026-04-22 14:33 | 43.38721 | -3.90971 | 39102 ft | 435 kts | 191° |
| 2026-04-22 14:34 | 43.32701 | -3.91980 | 39095 ft | 436 kts | 191° |
| 2026-04-22 14:34 | 43.26686 | -3.92928 | 39104 ft | 436 kts | 190° |
| 2026-04-22 14:35 | 43.20648 | -3.93832 | 39088 ft | 437 kts | 190° |
| 2026-04-22 14:35 | 43.14600 | -3.94725 | 39062 ft | 436 kts | 190° |
| 2026-04-22 14:36 | 43.08568 | -3.95615 | 39052 ft | 436 kts | 190° |
| 2026-04-22 14:36 | 43.02532 | -3.96507 | 39042 ft | 436 kts | 190° |
| 2026-04-22 14:37 | 42.96497 | -3.97397 | 39050 ft | 436 kts | 190° |
| 2026-04-22 14:37 | 42.90457 | -3.98283 | 39034 ft | 437 kts | 189° |
| 2026-04-22 14:38 | 42.84413 | -3.99167 | 39039 ft | 437 kts | 189° |
| 2026-04-22 14:38 | 42.78369 | -4.00049 | 39026 ft | 437 kts | 189° |
| 2026-04-22 14:39 | 42.72316 | -4.00932 | 39026 ft | 437 kts | 189° |
| 2026-04-22 14:39 | 42.66267 | -4.01812 | 39025 ft | 437 kts | 189° |
| 2026-04-22 14:40 | 42.57191 | -4.03130 | 39016 ft | 437 kts | 189° |
| 2026-04-22 14:40 | 42.51146 | -4.04000 | 39013 ft | 437 kts | 189° |
| 2026-04-22 14:41 | 42.45147 | -4.04861 | 39018 ft | 437 kts | 189° |
| 2026-04-22 14:41 | 42.39103 | -4.05727 | 39023 ft | 436 kts | 189° |
| 2026-04-22 14:42 | 42.33065 | -4.06592 | 39015 ft | 436 kts | 189° |
| 2026-04-22 14:42 | 42.27027 | -4.07454 | 39017 ft | 437 kts | 189° |
| 2026-04-22 14:43 | 42.20983 | -4.08316 | 39018 ft | 436 kts | 189° |
| 2026-04-22 14:43 | 42.14948 | -4.09175 | 39019 ft | 436 kts | 189° |
| 2026-04-22 14:44 | 42.08910 | -4.10033 | 39018 ft | 437 kts | 189° |
| 2026-04-22 14:44 | 42.02860 | -4.10891 | 39021 ft | 437 kts | 189° |
| 2026-04-22 14:45 | 41.96805 | -4.11632 | 39021 ft | 438 kts | 188° |
| 2026-04-22 14:45 | 41.90731 | -4.12298 | 39018 ft | 438 kts | 188° |
| 2026-04-22 14:46 | 41.84651 | -4.12974 | 39018 ft | 438 kts | 188° |
| 2026-04-22 14:46 | 41.78575 | -4.13663 | 39016 ft | 438 kts | 188° |
| 2026-04-22 14:47 | 41.72489 | -4.14355 | 39017 ft | 439 kts | 188° |
| 2026-04-22 14:47 | 41.66410 | -4.15045 | 39009 ft | 438 kts | 188° |
| 2026-04-22 14:48 | 41.60333 | -4.15733 | 39008 ft | 438 kts | 188° |
| 2026-04-22 14:48 | 41.55290 | -4.16303 | 39011 ft | 438 kts | 188° |
| 2026-04-22 14:49 | 41.49216 | -4.16988 | 39006 ft | 438 kts | 188° |
| 2026-04-22 14:49 | 41.43153 | -4.17663 | 39002 ft | 437 kts | 188° |
| 2026-04-22 14:50 | 41.37088 | -4.18336 | 39003 ft | 437 kts | 188° |
| 2026-04-22 14:50 | 41.31032 | -4.19008 | 39003 ft | 437 kts | 188° |
| 2026-04-22 14:51 | 41.24974 | -4.19680 | 38992 ft | 437 kts | 188° |
| 2026-04-22 14:51 | 41.18922 | -4.20357 | 39000 ft | 436 kts | 188° |
| 2026-04-22 14:52 | 41.12870 | -4.21033 | 39004 ft | 437 kts | 188° |
| 2026-04-22 14:52 | 41.06814 | -4.21709 | 39002 ft | 437 kts | 188° |
| 2026-04-22 14:53 | 41.00763 | -4.22381 | 39008 ft | 436 kts | 188° |
| 2026-04-22 14:53 | 40.94707 | -4.23051 | 39006 ft | 436 kts | 188° |
| 2026-04-22 14:54 | 40.88657 | -4.23718 | 39011 ft | 436 kts | 188° |
| 2026-04-22 14:54 | 40.82643 | -4.24380 | 38999 ft | 436 kts | 188° |
| 2026-04-22 14:55 | 40.76588 | -4.25046 | 39007 ft | 436 kts | 188° |
| 2026-04-22 14:55 | 40.70540 | -4.25710 | 39013 ft | 436 kts | 188° |
| 2026-04-22 14:56 | 40.64488 | -4.26373 | 39005 ft | 436 kts | 188° |
| 2026-04-22 14:56 | 40.58437 | -4.27035 | 39014 ft | 437 kts | 188° |
| 2026-04-22 14:57 | 40.52383 | -4.27696 | 39007 ft | 436 kts | 188° |
| 2026-04-22 14:57 | 40.46347 | -4.28354 | 39013 ft | 435 kts | 188° |
| 2026-04-22 14:58 | 40.40307 | -4.29011 | 39007 ft | 436 kts | 188° |
| 2026-04-22 14:58 | 40.34265 | -4.29667 | 38999 ft | 436 kts | 187° |
| 2026-04-22 14:59 | 40.28222 | -4.30322 | 38998 ft | 435 kts | 187° |
| 2026-04-22 14:59 | 40.22183 | -4.30976 | 38996 ft | 436 kts | 187° |
| 2026-04-22 15:00 | 40.16137 | -4.31629 | 38996 ft | 436 kts | 187° |
| 2026-04-22 15:00 | 40.10095 | -4.32281 | 38998 ft | 436 kts | 187° |
| 2026-04-22 15:01 | 40.04040 | -4.32933 | 38997 ft | 437 kts | 187° |
| 2026-04-22 15:01 | 39.97972 | -4.33585 | 38995 ft | 437 kts | 187° |
| 2026-04-22 15:02 | 39.91961 | -4.34644 | 38984 ft | 435 kts | 193° |
| 2026-04-22 15:02 | 39.86004 | -4.36060 | 38993 ft | 436 kts | 193° |
| 2026-04-22 15:03 | 39.80028 | -4.37413 | 38992 ft | 436 kts | 192° |
| 2026-04-22 15:03 | 39.74037 | -4.38718 | 38997 ft | 436 kts | 192° |
| 2026-04-22 15:04 | 39.68042 | -4.39997 | 38993 ft | 437 kts | 192° |
| 2026-04-22 15:04 | 39.62086 | -4.41260 | 38996 ft | 437 kts | 192° |
| 2026-04-22 15:05 | 39.56091 | -4.42533 | 38998 ft | 437 kts | 192° |
| 2026-04-22 15:05 | 39.50088 | -4.43807 | 38998 ft | 437 kts | 192° |
| 2026-04-22 15:06 | 39.44076 | -4.45082 | 38991 ft | 438 kts | 192° |
| 2026-04-22 15:06 | 39.38061 | -4.46354 | 39008 ft | 438 kts | 192° |
| 2026-04-22 15:07 | 39.32055 | -4.47623 | 38990 ft | 438 kts | 192° |
| 2026-04-22 15:07 | 39.26042 | -4.48891 | 38986 ft | 438 kts | 192° |
| 2026-04-22 15:08 | 39.20317 | -4.51295 | 38996 ft | 431 kts | 210° |
| 2026-04-22 15:08 | 39.15303 | -4.55471 | 38993 ft | 429 kts | 216° |
| 2026-04-22 15:09 | 39.10382 | -4.59811 | 38999 ft | 429 kts | 216° |
| 2026-04-22 15:09 | 39.05397 | -4.64030 | 38984 ft | 429 kts | 215° |
| 2026-04-22 15:10 | 39.00397 | -4.68207 | 38983 ft | 429 kts | 212° |
| 2026-04-22 15:10 | 38.94904 | -4.71229 | 38991 ft | 431 kts | 202° |
| 2026-04-22 15:11 | 38.89277 | -4.73878 | 38988 ft | 430 kts | 202° |
| 2026-04-22 15:11 | 38.83660 | -4.76540 | 38983 ft | 430 kts | 203° |
| 2026-04-22 15:12 | 38.78057 | -4.79230 | 38974 ft | 430 kts | 203° |
| 2026-04-22 15:12 | 38.72467 | -4.81925 | 38978 ft | 429 kts | 203° |
| 2026-04-22 15:13 | 38.66911 | -4.84604 | 38979 ft | 429 kts | 203° |
| 2026-04-22 15:13 | 38.61323 | -4.87294 | 38979 ft | 429 kts | 203° |
| 2026-04-22 15:14 | 38.55735 | -4.89979 | 38986 ft | 429 kts | 203° |
| 2026-04-22 15:14 | 38.50137 | -4.92663 | 38976 ft | 429 kts | 203° |
| 2026-04-22 15:15 | 38.44544 | -4.95340 | 38977 ft | 429 kts | 203° |
| 2026-04-22 15:15 | 38.38952 | -4.98013 | 38980 ft | 429 kts | 204° |
| 2026-04-22 15:16 | 38.33358 | -5.00682 | 38978 ft | 429 kts | 204° |
| 2026-04-22 15:16 | 38.27761 | -5.03349 | 38980 ft | 429 kts | 204° |
| 2026-04-22 15:17 | 38.22171 | -5.06007 | 38978 ft | 429 kts | 203° |
| 2026-04-22 15:17 | 38.16575 | -5.08664 | 38975 ft | 429 kts | 203° |
| 2026-04-22 15:18 | 38.10980 | -5.11316 | 38978 ft | 429 kts | 203° |
| 2026-04-22 15:18 | 38.05383 | -5.13965 | 38963 ft | 429 kts | 204° |
| 2026-04-22 15:19 | 38.02561 | -5.15300 | 38541 ft | 436 kts | 203° |
| 2026-04-22 15:19 | 37.99728 | -5.16638 | 38011 ft | 434 kts | 203° |
| 2026-04-22 15:19 | 37.96911 | -5.17966 | 37637 ft | 428 kts | 203° |
| 2026-04-22 15:19 | 37.94131 | -5.19275 | 37207 ft | 425 kts | 204° |
| 2026-04-22 15:20 | 37.92306 | -5.20133 | 36962 ft | 421 kts | 204° |
| 2026-04-22 15:20 | 37.88653 | -5.21851 | 36451 ft | 415 kts | 204° |
| 2026-04-22 15:20 | 37.85962 | -5.23115 | 36100 ft | 411 kts | 204° |
| 2026-04-22 15:20 | 37.83295 | -5.24369 | 35703 ft | 407 kts | 204° |
| 2026-04-22 15:21 | 37.80647 | -5.25612 | 35342 ft | 404 kts | 204° |
| 2026-04-22 15:21 | 37.78027 | -5.26843 | 34968 ft | 401 kts | 204° |
| 2026-04-22 15:21 | 37.75418 | -5.28067 | 34606 ft | 398 kts | 204° |
| 2026-04-22 15:21 | 37.72823 | -5.29283 | 34245 ft | 396 kts | 204° |
| 2026-04-22 15:22 | 37.70257 | -5.30485 | 33861 ft | 393 kts | 204° |
| 2026-04-22 15:22 | 37.67694 | -5.31685 | 33454 ft | 391 kts | 204° |
| 2026-04-22 15:22 | 37.65156 | -5.32871 | 33071 ft | 388 kts | 204° |
| 2026-04-22 15:22 | 37.62637 | -5.34048 | 32711 ft | 385 kts | 204° |
| 2026-04-22 15:23 | 37.60134 | -5.35216 | 32368 ft | 381 kts | 204° |
| 2026-04-22 15:23 | 37.57688 | -5.36357 | 32000 ft | 378 kts | 204° |
| 2026-04-22 15:23 | 37.55232 | -5.37502 | 31661 ft | 375 kts | 204° |
| 2026-04-22 15:23 | 37.52757 | -5.38656 | 31315 ft | 373 kts | 204° |
| 2026-04-22 15:24 | 37.50335 | -5.39783 | 30971 ft | 370 kts | 204° |
| 2026-04-22 15:24 | 37.47922 | -5.40906 | 30631 ft | 368 kts | 204° |
| 2026-04-22 15:24 | 37.45528 | -5.42020 | 30297 ft | 366 kts | 204° |
| 2026-04-22 15:24 | 37.43175 | -5.43113 | 29954 ft | 364 kts | 204° |
| 2026-04-22 15:25 | 37.40775 | -5.44227 | 29555 ft | 362 kts | 204° |
| 2026-04-22 15:25 | 37.38457 | -5.45303 | 29209 ft | 358 kts | 204° |
| 2026-04-22 15:25 | 37.36127 | -5.46383 | 28836 ft | 355 kts | 204° |
| 2026-04-22 15:25 | 37.33820 | -5.47451 | 28495 ft | 352 kts | 204° |
| 2026-04-22 15:26 | 37.31530 | -5.48512 | 28147 ft | 349 kts | 204° |
| 2026-04-22 15:26 | 37.29258 | -5.49563 | 27795 ft | 347 kts | 204° |
| 2026-04-22 15:26 | 37.27005 | -5.50606 | 27453 ft | 344 kts | 204° |
| 2026-04-22 15:26 | 37.24763 | -5.51642 | 27121 ft | 342 kts | 204° |
| 2026-04-22 15:27 | 37.22556 | -5.52660 | 26778 ft | 334 kts | 204° |
| 2026-04-22 15:27 | 37.20402 | -5.53652 | 26466 ft | 326 kts | 204° |
| 2026-04-22 15:27 | 37.18297 | -5.54622 | 26138 ft | 320 kts | 204° |
| 2026-04-22 15:27 | 37.16221 | -5.55579 | 25835 ft | 316 kts | 204° |
| 2026-04-22 15:28 | 37.14139 | -5.56542 | 25543 ft | 325 kts | 204° |
| 2026-04-22 15:28 | 37.11967 | -5.57549 | 25240 ft | 342 kts | 204° |
| 2026-04-22 15:28 | 37.09713 | -5.58591 | 24855 ft | 344 kts | 204° |
| 2026-04-22 15:28 | 37.07486 | -5.59613 | 24507 ft | 337 kts | 204° |
| 2026-04-22 15:29 | 37.05310 | -5.60609 | 24168 ft | 328 kts | 204° |
| 2026-04-22 15:29 | 37.03191 | -5.61579 | 23851 ft | 321 kts | 204° |
| 2026-04-22 15:29 | 37.01116 | -5.62529 | 23530 ft | 315 kts | 204° |
| 2026-04-22 15:30 | 36.97715 | -5.64088 | 22937 ft | 307 kts | 204° |
| 2026-04-22 15:30 | 36.95036 | -5.65319 | 22541 ft | 316 kts | 204° |
| 2026-04-22 15:30 | 36.92917 | -5.66295 | 22230 ft | 330 kts | 204° |
| 2026-04-22 15:30 | 36.90773 | -5.67279 | 21871 ft | 326 kts | 203° |
| 2026-04-22 15:31 | 36.88669 | -5.68239 | 21537 ft | 317 kts | 203° |
| 2026-04-22 15:31 | 36.86632 | -5.69166 | 21239 ft | 307 kts | 204° |
| 2026-04-22 15:31 | 36.84647 | -5.70071 | 20921 ft | 300 kts | 203° |
| 2026-04-22 15:31 | 36.82708 | -5.70955 | 20637 ft | 294 kts | 204° |
| 2026-04-22 15:32 | 36.80777 | -5.71897 | 20390 ft | 309 kts | 205° |
| 2026-04-22 15:32 | 36.78673 | -5.72886 | 20114 ft | 336 kts | 203° |
| 2026-04-22 15:32 | 36.76462 | -5.73867 | 19770 ft | 336 kts | 202° |
| 2026-04-22 15:32 | 36.74268 | -5.74840 | 19427 ft | 335 kts | 202° |
| 2026-04-22 15:33 | 36.72073 | -5.75824 | 19095 ft | 335 kts | 202° |
| 2026-04-22 15:33 | 36.69877 | -5.76816 | 18758 ft | 335 kts | 202° |
| 2026-04-22 15:33 | 36.67695 | -5.77804 | 18445 ft | 332 kts | 202° |
| 2026-04-22 15:33 | 36.65533 | -5.78785 | 18102 ft | 329 kts | 202° |
| 2026-04-22 15:34 | 36.63396 | -5.79754 | 17734 ft | 325 kts | 202° |
| 2026-04-22 15:34 | 36.61278 | -5.80716 | 17363 ft | 323 kts | 202° |
| 2026-04-22 15:34 | 36.59179 | -5.81668 | 17008 ft | 320 kts | 202° |
| 2026-04-22 15:34 | 36.57122 | -5.82601 | 16644 ft | 317 kts | 202° |
| 2026-04-22 15:35 | 36.55725 | -5.83234 | 16423 ft | 315 kts | 202° |
| 2026-04-22 15:35 | 36.53012 | -5.84463 | 15955 ft | 312 kts | 202° |
| 2026-04-22 15:35 | 36.50981 | -5.85383 | 15612 ft | 309 kts | 202° |
| 2026-04-22 15:35 | 36.48963 | -5.86296 | 15272 ft | 307 kts | 202° |
| 2026-04-22 15:36 | 36.46963 | -5.87201 | 14940 ft | 305 kts | 202° |
| 2026-04-22 15:36 | 36.44985 | -5.88096 | 14606 ft | 302 kts | 202° |
| 2026-04-22 15:36 | 36.43014 | -5.88986 | 14273 ft | 300 kts | 201° |
| 2026-04-22 15:36 | 36.41062 | -5.89868 | 13961 ft | 298 kts | 201° |
| 2026-04-22 15:37 | 36.39120 | -5.90744 | 13614 ft | 296 kts | 201° |
| 2026-04-22 15:37 | 36.37188 | -5.91615 | 13242 ft | 294 kts | 201° |
| 2026-04-22 15:37 | 36.35275 | -5.92478 | 12893 ft | 292 kts | 202° |
| 2026-04-22 15:37 | 36.34011 | -5.93048 | 12687 ft | 290 kts | 202° |
| 2026-04-22 15:38 | 36.32126 | -5.93897 | 12386 ft | 286 kts | 202° |
| 2026-04-22 15:38 | 36.28424 | -5.95563 | 11789 ft | 280 kts | 202° |
| 2026-04-22 15:38 | 36.26602 | -5.96382 | 11488 ft | 278 kts | 202° |
| 2026-04-22 15:39 | 36.24783 | -5.97173 | 11188 ft | 278 kts | 198° |
| 2026-04-22 15:39 | 36.22836 | -5.97166 | 10914 ft | 290 kts | 171° |
| 2026-04-22 15:39 | 36.20916 | -5.96354 | 10677 ft | 295 kts | 163° |
| 2026-04-22 15:39 | 36.19035 | -5.95291 | 10426 ft | 299 kts | 161° |
| 2026-04-22 15:40 | 36.17166 | -5.94157 | 10168 ft | 300 kts | 160° |
| 2026-04-22 15:40 | 36.15286 | -5.93008 | 9902 ft | 301 kts | 161° |
| 2026-04-22 15:40 | 36.13417 | -5.91874 | 9617 ft | 297 kts | 161° |
| 2026-04-22 15:40 | 36.11567 | -5.90763 | 9330 ft | 293 kts | 161° |
| 2026-04-22 15:41 | 36.09741 | -5.89676 | 9038 ft | 290 kts | 160° |
| 2026-04-22 15:41 | 36.07926 | -5.88604 | 8761 ft | 289 kts | 160° |
| 2026-04-22 15:41 | 36.06112 | -5.87537 | 8485 ft | 287 kts | 159° |
| 2026-04-22 15:41 | 36.04310 | -5.86480 | 8211 ft | 286 kts | 159° |
| 2026-04-22 15:42 | 36.02512 | -5.85428 | 7945 ft | 286 kts | 159° |
| 2026-04-22 15:42 | 36.00723 | -5.84382 | 7674 ft | 284 kts | 158° |
| 2026-04-22 15:42 | 35.98950 | -5.83346 | 7408 ft | 281 kts | 158° |
| 2026-04-22 15:42 | 35.97194 | -5.82320 | 7138 ft | 277 kts | 158° |
| 2026-04-22 15:43 | 35.95455 | -5.81306 | 6872 ft | 275 kts | 157° |
| 2026-04-22 15:43 | 35.93761 | -5.80318 | 6604 ft | 265 kts | 157° |
| 2026-04-22 15:43 | 35.92122 | -5.79362 | 6353 ft | 255 kts | 156° |
| 2026-04-22 15:43 | 35.90542 | -5.78442 | 6088 ft | 247 kts | 156° |
| 2026-04-22 15:44 | 35.89031 | -5.77562 | 5828 ft | 240 kts | 156° |
| 2026-04-22 15:44 | 35.87545 | -5.76698 | 5624 ft | 234 kts | 156° |
| 2026-04-22 15:44 | 35.86084 | -5.75851 | 5376 ft | 231 kts | 157° |
| 2026-04-22 15:44 | 35.84605 | -5.75017 | 5106 ft | 230 kts | 156° |
| 2026-04-22 15:45 | 35.83186 | -5.74183 | 4868 ft | 229 kts | 155° |
| 2026-04-22 15:45 | 35.81760 | -5.73328 | 4635 ft | 228 kts | 155° |
| 2026-04-22 15:45 | 35.80321 | -5.72490 | 4395 ft | 230 kts | 155° |
| 2026-04-22 15:45 | 35.78871 | -5.71651 | 4129 ft | 231 kts | 155° |
| 2026-04-22 15:46 | 35.77417 | -5.70818 | 3878 ft | 228 kts | 155° |
| 2026-04-22 15:46 | 35.76011 | -5.70009 | 3623 ft | 218 kts | 155° |
| 2026-04-22 15:46 | 35.74655 | -5.69222 | 3357 ft | 213 kts | 153° |
| 2026-04-22 15:46 | 35.73338 | -5.68466 | 3246 ft | 209 kts | 158° |
| 2026-04-22 15:47 | 35.71887 | -5.68306 | 3212 ft | 217 kts | 196° |
| 2026-04-22 15:47 | 35.70689 | -5.69364 | 3177 ft | 218 kts | 238° |
| 2026-04-22 15:47 | 35.70445 | -5.71147 | 3223 ft | 217 kts | 279° |
| 2026-04-22 15:47 | 35.70817 | -5.72925 | 3188 ft | 210 kts | 283° |
| 2026-04-22 15:48 | 35.71160 | -5.74632 | 2998 ft | 206 kts | 280° |
| 2026-04-22 15:48 | 35.71410 | -5.76391 | 2567 ft | 211 kts | 280° |
| 2026-04-22 15:48 | 35.71673 | -5.78162 | 2137 ft | 210 kts | 281° |
| 2026-04-22 15:48 | 35.71911 | -5.79891 | 1850 ft | 200 kts | 281° |
| 2026-04-22 15:49 | 35.72131 | -5.81563 | 1504 ft | 191 kts | 282° |
| 2026-04-22 15:49 | 35.72332 | -5.83121 | 1223 ft | 176 kts | 279° |
| 2026-04-22 15:49 | 35.72464 | -5.84534 | 1000 ft | 164 kts | 278° |
| 2026-04-22 15:49 | 35.72583 | -5.85850 | 845 ft | 147 kts | 280° |
| 2026-04-22 15:50 | 35.72689 | -5.87063 | 639 ft | 138 kts | 280° |
| 2026-04-22 15:50 | 35.72803 | -5.88250 | 471 ft | 141 kts | 279° |
| 2026-04-22 15:50 | 35.72914 | -5.89442 | 318 ft | 139 kts | 279° |
| 2026-04-22 15:50 | 35.73023 | -5.90601 | 125 ft | 132 kts | 279° |
| 2026-04-22 15:51 | 35.73126 | -5.91700 | 66 ft | 122 kts | 279° |
| 2026-04-22 15:51 | 35.73213 | -5.92620 | 55 ft | 91 kts | 276° |
| 2026-04-22 15:51 | 35.73264 | -5.93171 | 55 ft | 40 kts | 277° |
| 2026-04-22 15:51 | 35.73171 | -5.93329 | 59 ft | 22 kts | 177° |
| 2026-04-22 15:52 | 35.73086 | -5.93203 | 54 ft | 21 kts | 95° |
| 2026-04-22 15:52 | 35.73067 | -5.93025 | 59 ft | 21 kts | 97° |
| 2026-04-22 15:52 | 35.73052 | -5.92853 | 59 ft | 20 kts | 95° |
| 2026-04-22 15:52 | 35.73038 | -5.92686 | 59 ft | 19 kts | 97° |
| 2026-04-22 15:53 | 35.73021 | -5.92524 | 59 ft | 19 kts | 97° |
| 2026-04-22 15:53 | 35.73006 | -5.92370 | 58 ft | 18 kts | 97° |
| 2026-04-22 15:53 | 35.72993 | -5.92217 | 58 ft | 17 kts | 95° |
| 2026-04-22 15:53 | 35.72982 | -5.92071 | 58 ft | 17 kts | 95° |
| 2026-04-22 15:54 | 35.72967 | -5.91931 | 58 ft | 16 kts | 96° |
| 2026-04-22 15:54 | 35.72953 | -5.91785 | 59 ft | 18 kts | 98° |
| 2026-04-22 15:54 | 35.72853 | -5.91718 | 59 ft | 19 kts | 176° |
| 2026-04-22 15:54 | 35.72717 | -5.91704 | 59 ft | 21 kts | 174° |
| 2026-04-22 15:55 | 35.72570 | -5.91694 | 59 ft | 22 kts | 175° |
| 2026-04-22 15:55 | 35.72439 | -5.91613 | 59 ft | 22 kts | 121° |
| 2026-04-22 15:55 | 35.72432 | -5.91440 | 59 ft | 20 kts | 88° |
| 2026-04-22 15:55 | 35.72464 | -5.91370 | 56 ft | 8 kts | 356° |
| 2026-04-22 15:56 | 35.72516 | -5.91375 | 55 ft | 4 kts | 355° |